KMWL/MWL METAR and TAF weather

Enter ICAO airport designator
Station Type Date Time Source
KMWL METAR 2020/01/23 20:53 UTC NOAA

KMWL 232053Z AUTO 35011KT 10SM FEW120 16/02 A3001 RMK AO2 SLP159 T01560022 56019


Station Type Date Time Source
KMWL Decoded METAR 2020/01/23 20:53 UTC NOAA

MINERAL WELLS AIRPORT, TX, United States (KMWL) 32-47N 098-04W 284M
Jan 23, 2020 - 03:53 PM EST / 2020.01.23 2053 UTC
Wind: from the N (350 degrees) at 13 MPH (11 KT):0
Visibility: 10 mile(s):0
Sky conditions: mostly clear
Temperature: 60.1 F (15.6 C)
Dew Point: 36.0 F (2.2 C)
Relative Humidity: 40%
Pressure (altimeter): 30.01 in. Hg (1016 hPa)
Pressure tendency: 0.06 inches (1.9 hPa) lower than three hours ago
ob: KMWL 232053Z AUTO 35011KT 10SM FEW120 16/02 A3001 RMK AO2 SLP159 T01560022 56019
cycle: 21

Station Type Date Time Source
KMWL TAF UTC NOAA

Error!

Example: see airport list